createdAt,value
2022-08-09T16:00:39.209Z,50.63
2022-08-09T16:01:39.169Z,51.21
2022-08-09T16:04:23.297Z,51.11
2022-08-09T16:05:23.164Z,51.31
2022-08-09T16:06:32.644Z,50.73
2022-08-09T16:08:29.529Z,51.21
2022-08-09T16:09:16.050Z,51.40
2022-08-09T16:11:08.996Z,50.56
2022-08-09T16:12:08.967Z,50.04
2022-08-09T16:14:06.813Z,49.95
2022-08-09T16:15:01.877Z,50.34
2022-08-09T16:16:54.821Z,50.43
2022-08-09T16:17:54.800Z,49.95
2022-08-09T16:19:49.657Z,50.43
2022-08-09T16:20:47.708Z,50.63
2022-08-09T16:22:42.310Z,50.24
2022-08-09T16:23:41.095Z,49.37
2022-08-09T16:25:40.375Z,50.04
2022-08-09T16:26:36.462Z,49.63
2022-08-09T16:28:27.021Z,50.02
2022-08-09T16:29:37.110Z,50.60
2022-08-09T16:31:19.943Z,50.51
2022-08-09T16:32:34.433Z,50.48
2022-08-09T16:34:13.355Z,50.29
2022-08-09T16:35:19.095Z,50.68
2022-08-09T16:37:06.282Z,50.77
2022-08-09T16:38:06.260Z,50.77
2022-08-09T16:40:04.793Z,50.87
2022-08-09T16:40:59.282Z,51.26
2022-08-09T16:42:52.618Z,51.33
2022-08-09T16:43:52.593Z,50.96
2022-08-09T16:45:46.048Z,51.33
2022-08-09T16:46:55.012Z,51.23
2022-08-09T16:48:50.462Z,52.03
2022-08-09T16:50:32.144Z,52.42
2022-08-09T16:50:39.193Z,52.23
2022-08-09T16:52:31.935Z,52.03
2022-08-09T16:53:34.226Z,51.55
2022-08-09T16:55:25.269Z,52.72
2022-08-09T16:56:25.472Z,52.72
2022-08-09T16:58:18.702Z,51.93
2022-08-09T16:59:18.675Z,51.75
2022-08-09T17:01:13.661Z,52.33
2022-08-09T17:02:12.086Z,52.01
2022-08-09T17:04:05.310Z,52.40
2022-08-09T17:05:05.010Z,53.00
2022-08-09T17:08:44.437Z,52.59
2022-08-09T17:08:44.646Z,52.42
2022-08-09T17:09:51.367Z,52.11
2022-08-09T17:10:51.850Z,52.78
2022-08-09T17:12:44.787Z,53.85
2022-08-09T17:13:45.087Z,54.14
2022-08-09T17:15:59.166Z,53.47
2022-08-09T17:16:38.562Z,52.56
2022-08-09T17:18:31.620Z,53.53
2022-08-09T17:20:04.986Z,54.31
2022-08-09T17:21:25.522Z,54.02
2022-08-09T17:22:30.919Z,54.60
2022-08-09T17:24:28.371Z,54.41
2022-08-09T17:25:17.993Z,54.60
2022-08-09T17:27:15.429Z,54.60
2022-08-09T17:28:11.400Z,54.41
2022-08-09T17:30:06.698Z,55.38
2022-08-09T17:31:04.319Z,54.31
2022-08-09T17:33:00.590Z,55.21
2022-08-09T17:33:57.246Z,54.72
2022-08-09T17:35:06.354Z,54.11
2022-08-09T17:36:53.557Z,54.31
2022-08-09T17:38:02.453Z,55.38
2022-08-09T17:39:53.267Z,54.99
2022-08-09T17:40:47.195Z,55.67
2022-08-09T17:42:41.317Z,55.35
2022-08-09T17:43:37.314Z,55.64
2022-08-09T17:45:37.555Z,55.13
2022-08-09T17:46:33.957Z,55.83
2022-08-09T17:47:30.087Z,56.20
2022-08-09T17:49:22.852Z,56.20
2022-08-09T17:50:24.932Z,56.00
2022-08-09T17:52:22.257Z,56.97
2022-08-09T17:53:21.774Z,56.00
2022-08-09T17:55:09.186Z,56.20
2022-08-09T17:56:09.580Z,55.81
2022-08-09T17:58:03.283Z,57.14
2022-08-09T17:59:02.997Z,57.04
2022-08-09T18:00:56.715Z,57.14
2022-08-09T18:02:07.433Z,57.14
2022-08-09T18:03:48.460Z,56.56
2022-08-09T18:04:48.436Z,57.71
2022-08-09T18:06:49.708Z,59.14
2022-08-09T18:07:48.593Z,58.75
2022-08-09T18:09:40.012Z,59.69
2022-08-09T18:10:34.755Z,60.37
2022-08-09T18:12:05.890Z,60.47
2022-08-09T18:13:43.704Z,60.57
2022-08-09T18:14:28.164Z,60.66
2022-08-09T18:16:07.991Z,60.66
2022-08-09T18:17:27.123Z,60.17
2022-08-09T18:18:25.805Z,60.92
2022-08-09T18:20:56.931Z,60.82
2022-08-09T18:21:22.784Z,61.43
2022-08-09T18:22:17.168Z,61.92
2022-08-09T18:24:10.480Z,61.89
2022-08-09T18:25:07.905Z,61.43
2022-08-09T18:27:01.288Z,62.01
2022-08-09T18:28:04.926Z,62.30
2022-08-09T18:30:40.620Z,62.11
2022-08-09T18:30:53.733Z,61.24
2022-08-09T18:32:47.181Z,60.82
2022-08-09T18:33:53.596Z,61.40
2022-08-09T18:35:58.273Z,60.92
2022-08-09T18:36:40.570Z,61.30
2022-08-09T18:37:47.690Z,61.47
2022-08-09T18:39:34.032Z,62.24
2022-08-09T18:40:33.979Z,62.24
2022-08-09T18:42:29.241Z,61.95
2022-08-09T18:43:27.157Z,62.82
2022-08-09T18:45:21.730Z,63.50
2022-08-09T18:46:48.423Z,63.21
2022-08-09T18:48:12.788Z,63.50
2022-08-09T18:49:12.765Z,63.21
2022-08-09T18:51:05.705Z,63.60
2022-08-09T18:52:05.686Z,62.73
2022-08-09T18:53:05.678Z,62.73
2022-08-09T18:54:58.619Z,63.02
2022-08-09T18:56:05.833Z,63.40
2022-08-09T18:57:52.025Z,63.98
2022-08-09T18:58:55.637Z,63.98
2022-08-09T19:00:45.445Z,64.37
2022-08-09T19:01:46.295Z,64.37
2022-08-09T19:04:01.599Z,64.05
2022-08-09T19:04:38.851Z,64.14
2022-08-09T19:06:32.291Z,64.34
2022-08-09T19:07:32.270Z,64.14
2022-08-09T19:10:13.118Z,64.14
2022-08-09T19:10:25.169Z,64.43
2022-08-09T19:12:20.814Z,65.01
2022-08-09T19:13:23.011Z,65.69
2022-08-09T19:14:29.048Z,65.59
2022-08-09T19:16:13.033Z,65.98
2022-08-09T19:17:11.483Z,65.69
2022-08-09T19:19:19.287Z,65.98
2022-08-09T19:20:04.908Z,64.92
2022-08-09T19:22:04.569Z,65.50
2022-08-09T19:22:57.806Z,65.78
2022-08-09T19:25:07.643Z,65.88
2022-08-09T19:26:02.114Z,65.59
2022-08-09T19:27:43.658Z,65.08
2022-08-09T19:28:48.619Z,65.56
2022-08-09T19:30:22.670Z,66.30
2022-08-09T19:31:44.328Z,66.69
2022-08-09T19:32:37.339Z,67.27
2022-08-09T19:34:29.991Z,68.04
2022-08-09T19:35:29.958Z,68.43
2022-08-09T19:37:23.455Z,68.04
2022-08-09T19:38:23.435Z,68.13
2022-08-09T19:40:19.527Z,68.43
2022-08-09T19:41:33.008Z,68.23
2022-08-09T19:43:57.935Z,67.75
2022-08-09T19:44:10.255Z,67.17
2022-08-09T19:46:04.106Z,67.75
2022-08-09T19:47:03.652Z,68.10
2022-08-09T19:49:02.079Z,68.49
2022-08-09T19:50:05.190Z,68.59
2022-08-09T19:51:55.257Z,69.16
2022-08-09T19:52:52.190Z,69.07
2022-08-09T19:54:42.901Z,68.68
2022-08-09T19:56:02.226Z,68.97
2022-08-09T19:57:36.368Z,68.68
2022-08-09T19:58:36.349Z,69.35
2022-08-09T20:00:30.782Z,69.35
2022-08-09T20:01:47.730Z,68.87
2022-08-09T20:04:11.492Z,68.77
2022-08-09T20:04:36.346Z,69.35
2022-08-09T20:06:23.571Z,69.35
2022-08-09T20:07:20.890Z,69.64
2022-08-09T20:09:08.477Z,69.55
2022-08-09T20:10:17.832Z,70.03
2022-08-09T20:11:08.450Z,69.93
2022-08-09T20:13:01.364Z,70.32
2022-08-09T20:14:01.338Z,69.55
2022-08-09T20:16:33.142Z,70.03
2022-08-09T20:16:55.162Z,70.22
2022-08-09T20:17:55.051Z,69.13
2022-08-09T20:19:54.691Z,70.09
2022-08-09T20:20:47.644Z,69.61
2022-08-09T20:22:44.557Z,71.50
2022-08-09T20:23:40.559Z,71.89
2022-08-09T20:26:25.117Z,72.66
2022-08-09T20:27:25.081Z,73.14
2022-08-09T20:29:19.114Z,73.82
2022-08-09T20:30:21.665Z,73.53
2022-08-09T20:32:29.055Z,72.95
2022-08-09T20:33:10.891Z,73.24
2022-08-09T20:35:03.928Z,73.43
2022-08-09T20:36:03.801Z,73.43
2022-08-09T20:38:20.965Z,73.05
2022-08-09T20:39:28.486Z,73.10
2022-08-09T20:40:16.307Z,73.30
2022-08-09T20:41:50.274Z,73.91
2022-08-09T20:43:00.230Z,73.78
2022-08-09T20:44:50.660Z,74.30
2022-08-09T20:45:59.071Z,73.62
2022-08-09T20:47:48.511Z,73.82
2022-08-09T20:48:36.572Z,73.62
2022-08-09T20:50:47.930Z,73.72
2022-08-09T20:51:29.480Z,73.24
2022-08-09T20:53:36.281Z,72.85
2022-08-09T20:54:22.455Z,72.75
2022-08-09T20:56:19.977Z,73.30
2022-08-09T20:57:15.365Z,73.20
2022-08-09T20:59:08.286Z,73.78
2022-08-09T21:00:31.224Z,74.26
2022-08-09T21:02:01.218Z,73.97
2022-08-09T21:03:01.196Z,74.26
2022-08-09T21:05:48.261Z,74.26
2022-08-09T21:05:59.577Z,73.97
2022-08-09T21:06:54.076Z,74.45
2022-08-09T21:08:47.003Z,75.48
2022-08-09T21:09:56.643Z,75.57
2022-08-09T21:12:40.380Z,76.78
2022-08-09T21:14:36.967Z,76.98
2022-08-09T21:15:34.800Z,78.23
2022-08-09T21:18:11.855Z,78.23
2022-08-09T21:18:27.582Z,78.03
2022-08-09T21:20:19.432Z,78.13
2022-08-09T21:21:20.112Z,77.21
2022-08-09T21:22:36.021Z,76.88
2022-08-09T21:25:04.138Z,77.17
2022-08-09T21:26:04.099Z,77.65
2022-08-09T21:27:57.034Z,77.17
2022-08-09T21:28:57.311Z,76.78
2022-08-09T21:29:57.002Z,76.73
2022-08-09T21:31:49.981Z,77.11
2022-08-09T21:32:49.915Z,76.88
2022-08-09T21:34:48.205Z,77.17
2022-08-09T21:35:52.445Z,77.36
2022-08-09T21:37:47.069Z,78.23
2022-08-09T21:38:36.212Z,78.90
2022-08-09T21:40:30.880Z,79.05
2022-08-09T21:41:59.809Z,78.96
2022-08-09T21:43:55.999Z,79.44
2022-08-09T21:44:34.427Z,79.92
2022-08-09T21:45:22.582Z,81.13
2022-08-09T21:47:18.186Z,82.96
2022-08-09T21:48:15.484Z,83.44
2022-08-09T21:50:08.427Z,83.44
2022-08-09T21:51:14.010Z,83.25
2022-08-09T21:53:01.345Z,82.48
2022-08-09T21:54:01.312Z,81.90
2022-08-09T21:55:54.744Z,81.04
2022-08-09T21:56:55.085Z,81.56
2022-08-09T21:58:47.679Z,81.27
2022-08-09T21:59:47.625Z,80.69
